Time;durP1;ratioP1;P1;durP2;ratioP2;P2;SDS_P1;SDS_P2;PMS_P1;PMS_P2;Temp;Humidity;BMP_temperature;BMP_pressure;BME280_temperature;BME280_humidity;BME280_pressure;Samples;Min_cycle;Max_cycle;Signal;HPM_P1;HPM_P2
2021/05/10 00:01:51;;;;;;;3.85;2.47;;;;;;;19.93;41.89;99478.25;5101581;27;20118;-49
2021/05/10 00:04:17;;;;;;;7.30;2.10;;;;;;;19.99;41.35;99477.88;5100257;27;20146;-50
2021/05/10 00:06:43;;;;;;;3.50;2.03;;;;;;;19.79;42.73;99471.13;5095883;27;20051;-52
2021/05/10 00:09:08;;;;;;;7.40;1.75;;;;;;;19.71;42.93;99478.69;5114154;27;20200;-50
2021/05/10 00:11:35;;;;;;;3.00;1.98;;;;;;;19.69;43.08;99481.44;5094643;27;20030;-50
2021/05/10 00:14:04;;;;;;;4.63;1.80;;;;;;;20.14;41.01;99483.16;5084524;27;20601;-53
2021/05/10 00:16:30;;;;;;;4.30;1.83;;;;;;;19.88;41.45;99478.56;5100936;27;20890;-52
2021/05/10 00:18:56;;;;;;;4.15;1.90;;;;;;;19.84;42.37;99484.13;5096622;27;20046;-51
2021/05/10 00:21:22;;;;;;;4.32;1.92;;;;;;;19.72;42.58;99491.03;5094735;27;20036;-52
2021/05/10 00:23:47;;;;;;;3.25;1.80;;;;;;;19.66;42.84;99497.56;5097825;27;20039;-50
2021/05/10 00:26:19;;;;;;;3.60;1.67;;;;;;;19.83;42.98;99495.69;5098048;27;20087;-49
2021/05/10 00:28:48;;;;;;;4.75;1.80;;;;;;;19.92;41.54;99489.81;5049522;27;20042;-54
2021/05/10 00:31:14;;;;;;;4.82;1.70;;;;;;;19.76;42.35;99489.00;5101412;27;20078;-49
2021/05/10 00:33:39;;;;;;;3.47;1.75;;;;;;;19.77;42.36;99483.66;5096935;27;20110;-51
2021/05/10 00:36:05;;;;;;;3.13;1.70;;;;;;;19.81;43.00;99477.22;5085459;27;20044;-49
2021/05/10 00:38:31;;;;;;;3.33;1.77;;;;;;;20.00;41.14;99476.06;5073596;27;20842;-52
2021/05/10 00:40:56;;;;;;;3.88;2.00;;;;;;;20.15;41.32;99469.78;5099377;27;20067;-49
2021/05/10 00:43:22;;;;;;;4.03;1.88;;;;;;;20.14;41.35;99454.81;5096474;27;20449;-50
2021/05/10 00:45:48;;;;;;;3.40;1.83;;;;;;;20.11;42.10;99464.78;5099214;27;20531;-51
2021/05/10 00:48:14;;;;;;;5.20;1.95;;;;;;;20.33;40.88;99481.03;5103634;27;20180;-51
2021/05/10 00:50:40;;;;;;;4.28;1.80;;;;;;;20.25;41.04;99485.97;5092855;27;20069;-49
2021/05/10 00:53:05;;;;;;;4.30;1.75;;;;;;;20.03;41.79;99482.03;5098716;27;20015;-51
2021/05/10 00:55:32;;;;;;;5.68;1.90;;;;;;;20.06;41.79;99481.84;5096355;27;20547;-49
2021/05/10 00:58:03;;;;;;;5.05;1.92;;;;;;;20.02;42.00;99493.59;5097297;27;20527;-48
2021/05/10 01:00:35;;;;;;;3.85;1.80;;;;;;;20.13;41.24;99470.84;5080398;27;20126;-50
2021/05/10 01:03:08;;;;;;;5.43;2.30;;;;;;;20.06;42.50;99467.72;5094021;27;20323;-49
2021/05/10 01:05:36;;;;;;;5.05;1.83;;;;;;;20.13;41.10;99452.25;5069746;27;20032;-50
2021/05/10 01:08:03;;;;;;;4.63;1.80;;;;;;;19.87;43.20;99449.47;5093946;27;20035;-49
2021/05/10 01:10:28;;;;;;;5.45;1.83;;;;;;;19.78;42.82;99442.06;5091391;27;20088;-50
2021/05/10 01:12:54;;;;;;;4.30;2.00;;;;;;;19.70;43.58;99440.75;5097429;27;20472;-50
2021/05/10 01:15:23;;;;;;;6.60;2.10;;;;;;;19.52;43.49;99437.44;5089260;27;20191;-49
2021/05/10 01:17:51;;;;;;;5.05;2.05;;;;;;;19.99;42.03;99438.09;5069795;27;20033;-51
2021/05/10 01:20:18;;;;;;;;;;;;;;;20.20;40.47;99435.00;5097199;27;20607;-50
2021/05/10 01:22:47;;;;;;;3.63;2.08;;;;;;;19.99;41.69;99434.56;5079179;27;19932;-50
2021/05/10 01:25:23;;;;;;;;;;;;;;;20.04;42.81;99433.34;5072118;27;20094;-49
2021/05/10 01:27:50;;;;;;;3.35;2.05;;;;;;;19.85;41.37;99431.00;5073464;27;20393;-49
2021/05/10 01:30:21;;;;;;;3.25;1.80;;;;;;;19.68;42.04;99436.47;5084753;27;20400;-49
2021/05/10 01:32:49;;;;;;;4.20;1.85;;;;;;;19.94;40.62;99437.53;5075030;27;20035;-51
2021/05/10 01:35:18;;;;;;;4.25;1.90;;;;;;;19.66;41.83;99439.22;5073989;28;20297;-51
2021/05/10 01:37:47;;;;;;;4.95;1.95;;;;;;;19.56;41.92;99449.56;5101582;27;20092;-49
2021/05/10 01:40:13;;;;;;;4.28;1.88;;;;;;;19.53;42.49;99449.72;5097686;27;20480;-50
2021/05/10 01:42:39;;;;;;;4.70;1.98;;;;;;;19.49;42.86;99461.44;5097958;27;20495;-51
2021/05/10 01:45:06;;;;;;;5.22;1.95;;;;;;;19.67;42.23;99461.28;5096716;27;20047;-50
2021/05/10 01:47:33;;;;;;;5.72;2.00;;;;;;;19.45;43.25;99453.78;5101489;27;20480;-49
2021/05/10 01:49:58;;;;;;;4.30;2.22;;;;;;;19.22;44.68;99442.81;5093979;27;20027;-48
2021/05/10 01:52:24;;;;;;;4.35;2.15;;;;;;;19.16;44.65;99448.44;5090889;27;20099;-50
2021/05/10 01:54:52;;;;;;;3.38;2.03;;;;;;;19.26;43.23;99431.06;5096863;27;20040;-50
2021/05/10 01:57:20;;;;;;;3.90;2.20;;;;;;;19.80;40.91;99437.53;5095237;27;20505;-49
2021/05/10 01:59:46;;;;;;;4.63;1.92;;;;;;;19.68;41.73;99433.84;5094843;27;20023;-52
2021/05/10 02:02:12;;;;;;;4.85;2.17;;;;;;;19.72;41.19;99430.03;5094590;27;20027;-50
2021/05/10 02:05:11;;;;;;;7.93;2.58;;;;;;;19.63;41.77;99439.41;5096830;27;20035;-50
2021/05/10 02:07:40;;;;;;;4.07;2.13;;;;;;;19.35;43.63;99438.44;5077448;27;20043;-50
2021/05/10 02:10:11;;;;;;;;;;;;;;;19.28;43.66;99441.56;5070553;28;20044;-51
2021/05/10 02:12:36;;;;;;;3.28;1.90;;;;;;;19.77;41.41;99443.00;5071949;28;20202;-49
2021/05/10 02:15:05;;;;;;;7.65;2.53;;;;;;;19.94;40.92;99442.84;5075614;27;20483;-49
2021/05/10 02:17:30;;;;;;;4.30;2.10;;;;;;;20.05;39.45;99440.34;5095009;27;20039;-49
2021/05/10 02:19:56;;;;;;;4.80;1.85;;;;;;;20.30;39.11;99444.09;5097634;27;20112;-50
2021/05/10 02:22:22;;;;;;;3.47;1.77;;;;;;;20.47;38.23;99434.19;5076422;27;20134;-50
2021/05/10 02:24:48;;;;;;;4.13;1.75;;;;;;;20.50;38.42;99432.16;5073271;28;20488;-54
2021/05/10 02:27:14;;;;;;;3.58;1.90;;;;;;;20.38;38.83;99431.16;5077671;27;20043;-53
2021/05/10 02:29:39;;;;;;;3.40;1.60;;;;;;;20.41;38.90;99419.50;5084969;27;20216;-49
2021/05/10 02:32:05;;;;;;;2.08;1.45;;;;;;;20.52;38.29;99418.78;5083442;27;20042;-49
2021/05/10 02:34:31;;;;;;;3.17;1.80;;;;;;;20.51;38.48;99412.63;5076155;27;20040;-49
2021/05/10 02:36:56;;;;;;;4.50;1.90;;;;;;;20.56;38.81;99407.88;5085437;27;20553;-52
2021/05/10 02:39:22;;;;;;;3.22;1.90;;;;;;;20.61;38.38;99391.63;5101099;27;20031;-50
2021/05/10 02:41:48;;;;;;;3.13;1.80;;;;;;;20.70;37.65;99404.31;5099301;27;20058;-53
2021/05/10 02:44:14;;;;;;;3.25;1.80;;;;;;;20.64;38.34;99391.41;5105830;27;20031;-50
2021/05/10 02:46:40;;;;;;;3.67;1.83;;;;;;;20.66;37.95;99392.19;5108867;27;20050;-51
2021/05/10 02:49:05;;;;;;;4.55;1.85;;;;;;;20.27;40.18;99400.97;5088960;27;20042;-50
2021/05/10 02:51:31;;;;;;;3.55;1.90;;;;;;;20.28;39.67;99398.19;5081768;27;20047;-53
2021/05/10 02:54:17;;;;;;;4.15;1.98;;;;;;;20.11;40.11;99396.66;5089180;27;22907;-52
2021/05/10 02:56:42;;;;;;;2.35;1.60;;;;;;;20.19;39.89;99410.28;5095367;27;20039;-50
2021/05/10 02:59:08;;;;;;;4.20;1.70;;;;;;;20.19;39.98;99390.88;5043829;28;20440;-53
2021/05/10 03:01:34;;;;;;;6.15;1.95;;;;;;;20.04;40.26;99390.06;5066993;28;20128;-50
2021/05/10 03:04:00;;;;;;;4.47;1.80;;;;;;;19.99;41.11;99390.34;5108497;27;20043;-50
2021/05/10 03:06:26;;;;;;;5.43;2.20;;;;;;;19.97;40.59;99389.59;5104972;27;20354;-51
2021/05/10 03:08:51;;;;;;;3.70;1.80;;;;;;;19.95;41.02;99383.53;5096100;27;20035;-52
2021/05/10 03:11:17;;;;;;;2.97;1.80;;;;;;;19.86;42.04;99384.13;5096152;27;20601;-49
2021/05/10 03:13:43;;;;;;;5.88;2.00;;;;;;;19.82;42.71;99390.56;5073040;28;20032;-49
2021/05/10 03:16:09;;;;;;;3.75;1.75;;;;;;;19.93;41.16;99388.09;5095145;27;20236;-54
2021/05/10 03:18:35;;;;;;;4.78;2.20;;;;;;;19.58;41.92;99380.53;5095465;27;20096;-55
2021/05/10 03:21:02;;;;;;;4.05;2.20;;;;;;;19.77;41.76;99385.53;5097343;27;20042;-51
2021/05/10 03:23:27;;;;;;;3.35;1.90;;;;;;;19.69;42.46;99388.66;5092952;27;20465;-48
2021/05/10 03:25:53;;;;;;;4.32;2.00;;;;;;;19.54;42.46;99384.31;5102403;27;20047;-50
2021/05/10 03:28:19;;;;;;;5.03;1.85;;;;;;;19.55;41.40;99383.38;5079857;27;20443;-53
2021/05/10 03:30:44;;;;;;;3.85;1.70;;;;;;;19.58;42.10;99393.78;5085206;27;20095;-51
2021/05/10 03:33:13;;;;;;;3.50;2.00;;;;;;;19.64;41.51;99389.91;5089467;27;20067;-51
2021/05/10 03:35:39;;;;;;;4.35;1.80;;;;;;;20.00;40.35;99407.94;5102573;27;20046;-50
2021/05/10 03:38:05;;;;;;;4.50;1.83;;;;;;;19.87;40.97;99409.69;5098373;27;20142;-51
2021/05/10 03:40:30;;;;;;;4.03;2.05;;;;;;;19.85;40.79;99414.25;5086231;27;20044;-50
2021/05/10 03:42:57;;;;;;;3.67;2.00;;;;;;;19.69;41.10;99417.81;5089248;27;20054;-52
2021/05/10 03:45:23;;;;;;;6.63;2.00;;;;;;;19.63;41.64;99428.78;5079885;27;20539;-49
2021/05/10 03:47:48;;;;;;;6.20;1.92;;;;;;;19.79;41.34;99433.16;5074554;27;20324;-49
2021/05/10 03:50:17;;;;;;;4.47;2.00;;;;;;;19.70;41.22;99439.88;5099344;27;20383;-50
2021/05/10 03:52:44;;;;;;;4.57;1.90;;;;;;;19.69;41.92;99449.63;5094309;27;20046;-49
2021/05/10 03:55:11;;;;;;;3.35;1.80;;;;;;;19.72;41.60;99444.13;5082963;27;20050;-49
2021/05/10 03:57:37;;;;;;;5.22;1.98;;;;;;;19.67;41.47;99430.31;5096032;27;20611;-49
2021/05/10 04:00:08;;;;;;;3.50;1.92;;;;;;;19.42;42.65;99435.44;5101428;27;20043;-50
2021/05/10 04:02:35;;;;;;;2.85;2.00;;;;;;;19.61;42.13;99435.16;5088937;27;20548;-50
2021/05/10 04:07:43;;;;;;;3.58;1.83;;;;;;;19.68;44.88;99447.09;5097260;27;20059;-52
2021/05/10 04:15:37;;;;;;;3.67;2.00;;;;;;;19.42;45.33;99472.53;5089842;27;20380;-50
2021/05/10 04:18:04;;;;;;;6.18;2.80;;;;;;;19.01;53.61;99459.03;5082564;27;20043;-50
2021/05/10 04:20:29;;;;;;;7.25;2.50;;;;;;;18.24;56.54;99484.53;5100516;27;20031;-51
2021/05/10 04:22:56;;;;;;;6.55;2.75;;;;;;;17.94;58.64;99489.72;5093409;27;20043;-51
2021/05/10 04:25:22;;;;;;;8.02;2.13;;;;;;;17.72;58.15;99495.28;5081282;27;20478;-51
2021/05/10 04:27:48;;;;;;;7.40;2.75;;;;;;;17.44;62.69;99483.50;5078735;28;20130;-51
2021/05/10 04:30:15;;;;;;;5.88;2.78;;;;;;;17.25;61.69;99487.13;5079094;27;20043;-52
2021/05/10 04:32:41;;;;;;;4.47;2.42;;;;;;;17.21;60.78;99482.94;5095095;27;20050;-55
2021/05/10 04:35:08;;;;;;;8.55;2.88;;;;;;;16.98;65.03;99490.19;5082895;27;20163;-54
2021/05/10 04:37:35;;;;;;;4.32;2.90;;;;;;;17.19;59.76;99484.78;5059110;28;20087;-51
2021/05/10 04:40:01;;;;;;;4.90;2.45;;;;;;;17.28;59.45;99497.53;5088933;27;20051;-52
2021/05/10 04:42:28;;;;;;;3.83;2.38;;;;;;;17.24;58.41;99498.59;5097754;27;20539;-51
2021/05/10 04:44:54;;;;;;;4.70;2.58;;;;;;;17.41;58.76;99504.81;5093651;27;20047;-54
2021/05/10 04:47:20;;;;;;;6.28;2.90;;;;;;;17.50;57.30;99514.88;5086716;27;20059;-54
2021/05/10 04:49:46;;;;;;;5.43;2.25;;;;;;;17.45;57.82;99519.56;5113685;27;20035;-51
2021/05/10 04:52:11;;;;;;;4.68;1.58;;;;;;;17.68;55.16;99513.94;5097110;27;20134;-50
2021/05/10 04:54:37;;;;;;;4.72;2.70;;;;;;;17.76;55.13;99510.03;5102778;27;20418;-52
2021/05/10 04:57:03;;;;;;;4.10;2.08;;;;;;;17.85;53.00;99520.13;5102981;27;20301;-55
2021/05/10 04:59:29;;;;;;;3.55;1.90;;;;;;;17.92;53.10;99516.25;5100524;27;20039;-50
2021/05/10 05:01:55;;;;;;;4.35;2.10;;;;;;;17.82;54.48;99530.84;5083617;27;20035;-50
2021/05/10 05:04:21;;;;;;;4.60;1.98;;;;;;;17.94;53.70;99513.53;5100710;27;20039;-53
2021/05/10 05:06:47;;;;;;;3.78;2.00;;;;;;;17.94;53.56;99532.88;5098578;27;20039;-49
2021/05/10 05:09:13;;;;;;;4.40;1.80;;;;;;;18.38;49.95;99553.41;5099216;27;20440;-51
2021/05/10 05:11:39;;;;;;;3.50;1.80;;;;;;;18.55;49.31;99547.22;5095934;27;20578;-51
2021/05/10 05:14:05;;;;;;;3.72;1.95;;;;;;;18.55;49.03;99546.34;5101902;27;20118;-49
2021/05/10 05:16:31;;;;;;;3.40;1.92;;;;;;;18.52;49.96;99549.16;5077921;27;20044;-49
2021/05/10 05:18:57;;;;;;;4.28;1.63;;;;;;;18.48;49.24;99560.84;5086486;27;20043;-49
2021/05/10 05:21:23;;;;;;;3.80;2.00;;;;;;;18.63;49.49;99561.81;5090303;27;20059;-49
2021/05/10 05:23:49;;;;;;;4.95;2.30;;;;;;;18.60;49.74;99575.22;5074354;27;20688;-50
2021/05/10 05:26:15;;;;;;;3.47;1.80;;;;;;;18.66;48.95;99582.78;5104560;27;20122;-50
2021/05/10 05:28:41;;;;;;;4.00;2.10;;;;;;;18.67;49.39;99587.16;5071615;27;20134;-50
2021/05/10 05:31:07;;;;;;;5.70;2.13;;;;;;;18.71;48.57;99576.31;5075542;27;20040;-50
2021/05/10 05:33:33;;;;;;;3.97;2.00;;;;;;;18.78;48.17;99584.75;5082776;27;20389;-49
2021/05/10 05:35:59;;;;;;;3.97;2.20;;;;;;;18.61;49.28;99588.34;5092598;27;20050;-51
2021/05/10 05:38:25;;;;;;;5.22;2.00;;;;;;;18.72;48.44;99593.06;5099611;27;20543;-48
2021/05/10 05:40:50;;;;;;;4.65;2.00;;;;;;;18.75;48.46;99590.22;5097524;27;20047;-49
2021/05/10 05:43:16;;;;;;;4.30;2.20;;;;;;;18.70;48.89;99593.13;5094609;27;20039;-52
2021/05/10 05:45:43;;;;;;;3.85;1.90;;;;;;;18.59;49.30;99595.50;5097323;27;20567;-52
2021/05/10 05:48:11;;;;;;;5.07;2.00;;;;;;;18.72;48.27;99606.28;5098311;27;20062;-52
2021/05/10 05:50:38;;;;;;;4.82;2.70;;;;;;;18.74;48.45;99622.09;5090569;27;20062;-52
2021/05/10 05:53:04;;;;;;;6.90;2.20;;;;;;;18.55;49.45;99618.66;5092912;27;20031;-49
2021/05/10 05:55:31;;;;;;;4.05;2.10;;;;;;;18.52;51.12;99620.59;5072025;27;20532;-49
2021/05/10 05:57:58;;;;;;;6.07;1.98;;;;;;;18.52;49.80;99621.44;5079774;27;20625;-49
2021/05/10 06:00:24;;;;;;;4.03;2.28;;;;;;;18.56;49.91;99624.78;5092895;27;20368;-49
2021/05/10 06:02:49;;;;;;;4.75;2.28;;;;;;;18.51;50.21;99627.72;5097027;27;20062;-49
2021/05/10 06:05:16;;;;;;;6.32;2.08;;;;;;;18.48;49.49;99627.00;5110546;27;20044;-49
2021/05/10 06:07:43;;;;;;;4.13;2.10;;;;;;;18.53;49.50;99622.31;5104151;27;20050;-49
2021/05/10 06:10:10;;;;;;;4.70;2.20;;;;;;;18.61;48.52;99627.19;5084830;27;20082;-49
2021/05/10 06:12:37;;;;;;;4.27;1.73;;;;;;;18.57;49.09;99621.22;5081553;27;20046;-51
2021/05/10 06:15:04;;;;;;;3.65;2.17;;;;;;;18.47;50.10;99612.94;5077301;27;20154;-48
2021/05/10 06:17:30;;;;;;;4.50;2.22;;;;;;;18.33;50.21;99597.81;5074048;28;20059;-50
2021/05/10 06:19:56;;;;;;;3.60;2.10;;;;;;;18.51;49.74;99608.31;5075259;27;20073;-51
2021/05/10 06:22:22;;;;;;;5.80;2.25;;;;;;;18.52;49.52;99616.16;5074122;27;20058;-50
2021/05/10 06:24:48;;;;;;;4.88;1.92;;;;;;;18.62;48.88;99608.59;5089433;27;20043;-50
2021/05/10 06:27:13;;;;;;;4.93;2.10;;;;;;;18.65;48.49;99604.91;5094786;27;20039;-51
2021/05/10 06:29:39;;;;;;;3.60;2.05;;;;;;;18.49;49.32;99615.50;5067794;27;20432;-49
2021/05/10 06:32:05;;;;;;;5.65;2.08;;;;;;;18.65;48.94;99620.78;5077763;27;20027;-51
2021/05/10 06:34:30;;;;;;;4.68;1.95;;;;;;;18.63;48.74;99634.09;5086037;27;20034;-50
2021/05/10 06:36:56;;;;;;;4.20;1.92;;;;;;;18.72;49.41;99633.63;5075945;27;20071;-49
2021/05/10 06:39:23;;;;;;;3.08;1.73;;;;;;;18.68;49.01;99631.22;5070138;27;20036;-50
2021/05/10 06:41:49;;;;;;;3.15;1.80;;;;;;;18.63;49.33;99644.69;5067458;28;20067;-50
2021/05/10 06:44:15;;;;;;;5.30;1.83;;;;;;;18.45;50.46;99654.47;5069846;27;20933;-49
2021/05/10 06:46:40;;;;;;;4.00;2.00;;;;;;;18.49;50.23;99653.38;5079801;27;20607;-50
2021/05/10 06:49:06;;;;;;;6.80;2.20;;;;;;;18.61;50.24;99662.47;5069360;27;20656;-52
2021/05/10 06:51:32;;;;;;;3.65;2.15;;;;;;;18.63;50.41;99654.44;5088614;27;20039;-49
2021/05/10 06:54:01;;;;;;;3.63;1.95;;;;;;;18.51;50.41;99650.66;5080045;27;20070;-49
2021/05/10 06:56:27;;;;;;;;;;;;;;;18.53;50.14;99651.44;5078268;27;20440;-50
2021/05/10 06:58:53;;;;;;;3.63;1.73;;;;;;;18.55;49.97;99663.66;5080531;27;20322;-49
2021/05/10 07:01:18;;;;;;;4.32;2.08;;;;;;;18.76;49.47;99649.31;5073833;27;20048;-49
2021/05/10 07:03:44;;;;;;;4.53;2.08;;;;;;;18.80;50.45;99645.56;5075392;27;20056;-49
2021/05/10 07:06:09;;;;;;;5.38;2.13;;;;;;;18.85;50.38;99654.13;5074949;28;20090;-49
2021/05/10 07:08:35;;;;;;;4.65;2.03;;;;;;;18.97;49.62;99653.47;5070912;27;20042;-50
2021/05/10 07:11:01;;;;;;;4.40;2.05;;;;;;;19.03;49.38;99631.09;5065524;27;20039;-51
2021/05/10 07:13:27;;;;;;;4.22;1.88;;;;;;;19.07;48.98;99626.47;5066414;27;20119;-51
2021/05/10 07:15:52;;;;;;;4.20;2.00;;;;;;;19.23;49.90;99628.16;5078073;27;20047;-51
2021/05/10 07:18:19;;;;;;;4.15;2.08;;;;;;;19.35;49.19;99625.75;5080967;27;20125;-50
2021/05/10 07:20:45;;;;;;;5.10;2.50;;;;;;;19.41;50.09;99625.38;5092705;27;20385;-51
2021/05/10 07:23:14;;;;;;;3.38;2.15;;;;;;;19.56;49.07;99652.78;5093154;27;20037;-51
2021/05/10 07:25:49;;;;;;;3.10;1.80;;;;;;;19.48;48.56;99671.81;5091844;27;20468;-55
2021/05/10 07:28:20;;;;;;;3.05;1.90;;;;;;;19.47;48.40;99666.59;5068833;27;20618;-49
2021/05/10 07:30:47;;;;;;;4.35;1.80;;;;;;;19.62;47.46;99678.94;5068284;28;20054;-50
2021/05/10 07:33:13;;;;;;;4.53;1.65;;;;;;;19.67;48.06;99698.06;5072001;27;20115;-52
2021/05/10 07:35:39;;;;;;;5.80;2.00;;;;;;;19.70;47.86;99699.69;5078494;27;20035;-50
2021/05/10 07:38:05;;;;;;;4.97;2.10;;;;;;;19.69;47.88;99700.66;5091547;27;20645;-52
2021/05/10 07:40:31;;;;;;;3.67;2.00;;;;;;;19.63;47.55;99687.75;5062434;28;20431;-52
2021/05/10 07:42:59;;;;;;;4.60;1.70;;;;;;;19.53;47.33;99692.72;5074921;27;20403;-51
2021/05/10 07:45:27;;;;;;;4.93;1.88;;;;;;;19.58;47.41;99701.28;5072739;27;20056;-54
2021/05/10 07:47:53;;;;;;;4.18;1.75;;;;;;;19.44;47.91;99711.81;5078133;27;20246;-52
2021/05/10 07:50:24;;;;;;;5.03;1.98;;;;;;;19.33;47.91;99702.69;5092749;27;20043;-50
2021/05/10 07:52:51;;;;;;;2.92;1.75;;;;;;;19.22;48.78;99705.91;5087963;27;20056;-50
2021/05/10 07:55:18;;;;;;;4.25;2.17;;;;;;;19.24;48.38;99705.84;5072301;27;20199;-50
2021/05/10 07:57:45;;;;;;;2.75;1.73;;;;;;;19.34;48.65;99730.03;5080313;27;20035;-53
2021/05/10 08:00:18;;;;;;;3.85;2.00;;;;;;;19.26;48.03;99732.25;5092555;27;20176;-52
2021/05/10 08:02:47;;;;;;;4.53;1.73;;;;;;;19.22;48.00;99743.00;5085478;27;20049;-52
2021/05/10 08:05:14;;;;;;;3.63;2.05;;;;;;;19.29;48.54;99746.19;5098035;27;20093;-53
2021/05/10 08:07:40;;;;;;;3.47;1.92;;;;;;;19.32;48.36;99751.31;5081620;27;20050;-50
2021/05/10 08:10:08;;;;;;;3.47;1.73;;;;;;;19.26;47.91;99740.19;5077560;27;20128;-50
2021/05/10 08:12:34;;;;;;;2.83;1.30;;;;;;;19.27;46.99;99744.56;5082001;27;20399;-50
2021/05/10 08:14:59;;;;;;;4.63;1.55;;;;;;;19.22;47.37;99735.06;5071536;27;20484;-51
2021/05/10 08:17:27;;;;;;;3.33;1.38;;;;;;;19.16;47.59;99721.31;5073389;27;20401;-49
2021/05/10 08:19:52;;;;;;;2.47;1.30;;;;;;;19.30;47.58;99716.09;5077969;27;20403;-48
2021/05/10 08:22:19;;;;;;;2.55;1.40;;;;;;;19.37;47.60;99720.13;5068492;27;20036;-50
2021/05/10 08:24:44;;;;;;;2.17;1.20;;;;;;;19.45;46.71;99716.16;5075795;27;20505;-50
2021/05/10 08:27:10;;;;;;;2.55;1.02;;;;;;;19.48;47.01;99734.53;5091295;27;20154;-48
2021/05/10 08:29:36;;;;;;;2.50;1.17;;;;;;;19.30;48.15;99750.56;5075202;27;20044;-48
2021/05/10 08:32:02;;;;;;;2.35;1.00;;;;;;;19.28;46.14;99765.66;5088328;27;20070;-48
2021/05/10 08:34:28;;;;;;;2.17;1.00;;;;;;;19.01;47.10;99790.09;5082436;27;20043;-48
2021/05/10 08:36:54;;;;;;;2.67;1.10;;;;;;;18.87;48.16;99779.31;5074648;28;20794;-49
2021/05/10 08:39:21;;;;;;;3.47;1.00;;;;;;;18.70;49.47;99783.72;5073415;27;20395;-51
2021/05/10 08:41:48;;;;;;;2.50;0.90;;;;;;;18.56;49.41;99791.53;5081555;27;20691;-51
2021/05/10 08:44:13;;;;;;;4.30;0.90;;;;;;;18.56;49.64;99796.81;5088680;27;20072;-51
2021/05/10 08:46:41;;;;;;;3.15;1.00;;;;;;;18.55;49.00;99784.53;5091315;27;20035;-50
2021/05/10 08:49:07;;;;;;;5.07;1.00;;;;;;;18.52;49.50;99763.50;5091135;27;20127;-49
2021/05/10 08:51:35;;;;;;;2.25;0.80;;;;;;;18.30;51.39;99795.53;5042571;27;20700;-49
2021/05/10 08:54:02;;;;;;;3.00;0.90;;;;;;;18.21;51.11;99810.06;5091142;27;21657;-50
2021/05/10 08:56:28;;;;;;;2.60;0.80;;;;;;;18.36;49.70;99822.53;5091453;27;20457;-48
2021/05/10 08:58:54;;;;;;;0.82;0.68;;;;;;;18.35;49.92;99827.91;5091436;27;20131;-50
2021/05/10 09:01:20;;;;;;;3.13;0.90;;;;;;;18.31;49.91;99845.69;5089948;27;20040;-49
2021/05/10 09:03:50;;;;;;;1.95;0.90;;;;;;;18.30;50.81;99859.00;5090526;27;20292;-50
2021/05/10 09:06:30;;;;;;;2.70;0.85;;;;;;;18.32;49.75;99842.13;5097748;27;20043;-49
2021/05/10 09:09:04;;;;;;;2.90;1.10;;;;;;;18.31;50.13;99843.06;5092886;27;20054;-48
2021/05/10 09:11:30;;;;;;;1.00;0.75;;;;;;;18.38;49.53;99852.41;5096555;27;20562;-49
2021/05/10 09:13:58;;;;;;;0.80;0.70;;;;;;;18.36;49.49;99838.41;5090947;27;20054;-50
2021/05/10 09:16:24;;;;;;;1.73;0.93;;;;;;;18.33;49.83;99827.09;5096391;27;20354;-50
2021/05/10 09:18:53;;;;;;;5.28;0.80;;;;;;;18.20;51.22;99816.28;5072983;27;20040;-49
2021/05/10 09:21:24;;;;;;;1.25;0.73;;;;;;;18.38;48.87;99836.53;5079283;27;20031;-51
2021/05/10 09:23:51;;;;;;;1.00;0.63;;;;;;;18.27;49.62;99851.22;5070031;27;20051;-49
2021/05/10 09:26:30;;;;;;;2.28;0.80;;;;;;;18.24;49.80;99860.19;5087059;27;20043;-50
2021/05/10 09:28:56;;;;;;;2.00;0.95;;;;;;;18.30;49.88;99867.78;5092109;27;20130;-48
2021/05/10 09:31:22;;;;;;;8.52;1.00;;;;;;;18.33;50.05;99885.31;5090693;27;20051;-48
2021/05/10 09:33:48;;;;;;;2.05;1.00;;;;;;;18.42;49.56;99889.31;5097357;27;20069;-51
2021/05/10 09:36:36;;;;;;;1.35;0.80;;;;;;;18.29;49.73;99874.03;5091146;27;20096;-51
2021/05/10 09:39:07;;;;;;;2.35;0.90;;;;;;;18.20;49.73;99866.56;5095569;27;20557;-50
2021/05/10 09:41:34;;;;;;;1.55;0.75;;;;;;;18.23;49.58;99873.47;5093223;27;20155;-50
2021/05/10 09:44:08;;;;;;;2.00;0.70;;;;;;;18.16;49.47;99883.50;5080740;27;20066;-51
2021/05/10 09:46:41;;;;;;;1.30;0.75;;;;;;;18.07;50.85;99889.22;5070596;28;20048;-51
2021/05/10 09:49:10;;;;;;;1.35;0.70;;;;;;;18.31;49.04;99905.72;5071934;27;20039;-49
2021/05/10 09:51:37;;;;;;;1.15;0.70;;;;;;;18.21;48.62;99898.22;5094797;27;20484;-49
2021/05/10 09:54:11;;;;;;;2.65;0.70;;;;;;;18.28;48.98;99906.72;5094208;27;20566;-48
2021/05/10 09:56:37;;;;;;;2.92;0.90;;;;;;;18.21;49.13;99916.72;5077676;27;20035;-48
2021/05/10 09:59:14;;;;;;;2.20;0.70;;;;;;;18.34;48.81;99924.06;5080447;27;20098;-50
2021/05/10 10:01:49;;;;;;;1.70;0.68;;;;;;;18.33;49.48;99938.22;5079987;27;20471;-50
2021/05/10 10:04:17;;;;;;;0.55;0.55;;;;;;;18.36;48.49;99928.38;5069809;28;20127;-49
2021/05/10 10:06:44;;;;;;;0.65;0.60;;;;;;;18.26;48.92;99935.00;5068639;27;20062;-51
2021/05/10 10:09:10;;;;;;;1.90;0.70;;;;;;;18.22;50.41;99922.91;5076403;28;20031;-52
2021/05/10 10:11:36;;;;;;;1.25;0.70;;;;;;;18.26;49.47;99936.81;5070403;28;20423;-50
2021/05/10 10:14:02;;;;;;;1.63;0.70;;;;;;;18.23;49.49;99955.50;5074212;27;20044;-48
2021/05/10 10:16:30;;;;;;;0.85;0.60;;;;;;;18.26;49.08;99950.03;5069531;27;20051;-48
2021/05/10 10:19:01;;;;;;;0.80;0.60;;;;;;;18.30;49.05;99960.41;5077282;27;20402;-51
2021/05/10 10:21:31;;;;;;;0.70;0.68;;;;;;;18.17;48.15;99967.22;5094184;28;20155;-50
2021/05/10 10:24:01;;;;;;;2.30;0.77;;;;;;;18.00;49.73;99965.38;5079322;28;20093;-48
2021/05/10 10:26:28;;;;;;;1.27;0.70;;;;;;;18.15;48.92;99963.78;5088823;27;20048;-50
2021/05/10 10:28:54;;;;;;;1.50;0.90;;;;;;;18.19;48.84;99962.69;5091665;27;20511;-51
2021/05/10 10:31:28;;;;;;;1.10;0.60;;;;;;;18.28;48.20;99956.13;5085383;27;20042;-49
2021/05/10 10:33:59;;;;;;;2.17;0.80;;;;;;;18.19;49.92;99954.75;5073223;28;20070;-49
2021/05/10 10:36:28;;;;;;;1.20;0.80;;;;;;;18.48;48.77;99942.75;5074366;28;20492;-49
2021/05/10 10:39:11;;;;;;;;;;;;;;;18.48;49.04;99932.19;5073355;27;20054;-52
2021/05/10 10:42:05;;;;;;;1.02;0.60;;;;;;;18.40;48.82;99934.38;5094322;27;19972;-49
2021/05/10 10:44:47;;;;;;;1.65;0.52;;;;;;;18.48;48.44;99960.44;5091852;27;20044;-50
2021/05/10 10:47:16;;;;;;;1.17;0.70;;;;;;;18.47;47.93;99969.31;5091206;27;20176;-49
2021/05/10 10:49:45;;;;;;;1.42;0.70;;;;;;;18.46;48.79;99965.81;5092198;27;20058;-49
2021/05/10 10:52:20;;;;;;;1.33;0.73;;;;;;;18.45;48.69;99953.50;5091655;27;20043;-52
2021/05/10 10:55:06;;;;;;;2.17;0.70;;;;;;;18.50;48.31;99951.50;5094285;27;20039;-49
2021/05/10 10:57:33;;;;;;;1.75;0.80;;;;;;;18.55;48.49;99945.97;5091587;27;20384;-49
2021/05/10 10:59:59;;;;;;;2.70;0.70;;;;;;;18.65;48.75;99957.84;5109484;27;20039;-48
2021/05/10 11:02:27;;;;;;;2.20;0.80;;;;;;;18.75;47.98;99989.13;5091543;27;20493;-49
2021/05/10 11:05:12;;;;;;;2.78;0.80;;;;;;;18.65;48.33;99994.91;5092106;27;20047;-49
2021/05/10 11:07:48;;;;;;;1.95;0.80;;;;;;;18.71;47.90;99991.94;5094573;27;20067;-48
2021/05/10 11:10:39;;;;;;;1.30;0.68;;;;;;;18.61;47.29;99995.97;5090477;27;20075;-50
2021/05/10 11:13:07;;;;;;;0.80;0.80;;;;;;;18.54;47.34;99995.41;5099343;27;20448;-47
2021/05/10 11:15:32;;;;;;;2.58;0.90;;;;;;;18.58;47.01;100004.06;5096299;27;20419;-50
2021/05/10 11:17:58;;;;;;;1.27;0.90;;;;;;;18.58;46.86;100000.56;5087996;27;20096;-50
2021/05/10 11:20:44;;;;;;;1.63;0.80;;;;;;;18.57;47.19;99991.75;5099795;27;20051;-48
2021/05/10 11:23:23;;;;;;;2.65;0.80;;;;;;;18.58;48.08;100004.06;5097633;27;20046;-50
2021/05/10 11:25:54;;;;;;;2.33;0.85;;;;;;;18.74;46.41;100011.25;5093977;27;20077;-52
2021/05/10 11:28:28;;;;;;;2.65;1.13;;;;;;;18.81;46.74;100010.03;5094231;27;20046;-49
2021/05/10 11:31:02;;;;;;;1.20;0.90;;;;;;;18.87;46.40;100005.31;5095600;27;20042;-49
2021/05/10 11:33:55;;;;;;;3.17;1.35;;;;;;;18.82;45.27;100011.75;5094945;27;20027;-49
2021/05/10 11:36:35;;;;;;;1.90;0.90;;;;;;;18.79;45.29;100009.22;5094180;27;20410;-51
2021/05/10 11:39:10;;;;;;;2.13;0.90;;;;;;;18.98;45.76;100014.50;5092038;27;21089;-48
2021/05/10 11:41:43;;;;;;;1.30;0.80;;;;;;;19.07;45.47;100008.75;5091734;27;20539;-49
2021/05/10 11:44:25;;;;;;;2.17;1.10;;;;;;;19.20;45.35;100008.97;5104935;27;20350;-50
2021/05/10 11:46:56;;;;;;;2.10;1.05;;;;;;;19.19;45.92;100005.47;5095934;27;20071;-49